Perry, Louisiana
Current Conditions -  °F | °C
As of 4:10 PM on Saturday 25 Oct 2014 (Local Time) from KIYA Reporting Station
Clear Clear  
Wind Chill: 82°   Ceiling: Unl
Heat Index: 82°   Visibility: 10mi
Dew Point: 48°   Wind: 3mph
Humidity: 30%   Direction: 300°WNW
Pressure: 30.09"   Gusts: NA
Location:  29.95°N, 92.16°W
Report Text: KIYA 252110Z AUTO 30003KT 10SM CLR 28/09 A3009 RMK AO2 T02770087
Loading
Personal Weather Stations






























Interactive Weather Map New forecast layout! Learn more

10-Day Weather Forecast

Advertisements
Track Severe Weather on mobile